createdAt,value
2022-12-16T00:00:48.958Z,28.00
2022-12-16T00:03:17.600Z,29.33
2022-12-16T00:05:45.213Z,29.05
2022-12-16T00:08:12.889Z,30.35
2022-12-16T00:10:54.977Z,30.15
2022-12-16T00:13:22.711Z,30.70
2022-12-16T00:15:52.639Z,28.63
2022-12-16T00:18:22.178Z,31.05
2022-12-16T00:20:52.442Z,29.13
2022-12-16T00:23:22.624Z,29.37
2022-12-16T00:25:51.039Z,28.48
2022-12-16T00:28:22.555Z,28.13
2022-12-16T00:30:55.929Z,30.75
2022-12-16T00:33:25.059Z,29.73
2022-12-16T00:35:54.182Z,30.83
2022-12-16T00:38:23.113Z,32.10
2022-12-16T00:40:52.100Z,30.10
2022-12-16T00:43:20.403Z,30.73
2022-12-16T00:45:48.847Z,32.50
2022-12-16T00:48:23.425Z,32.42
2022-12-16T00:50:51.897Z,31.25
2022-12-16T00:53:19.722Z,33.15
2022-12-16T00:55:47.751Z,31.63
2022-12-16T00:58:15.984Z,33.17
2022-12-16T01:00:43.943Z,32.03
2022-12-16T01:03:14.385Z,34.45
2022-12-16T01:05:47.600Z,33.22
2022-12-16T01:08:15.886Z,31.25
2022-12-16T01:10:43.628Z,32.22
2022-12-16T01:13:11.310Z,31.92
2022-12-16T01:15:38.798Z,32.08
2022-12-16T01:18:06.542Z,32.67
2022-12-16T01:20:34.351Z,30.85
2022-12-16T01:23:06.662Z,30.92
2022-12-16T01:25:35.178Z,31.30
2022-12-16T01:28:04.092Z,30.10
2022-12-16T01:30:32.221Z,30.40
2022-12-16T01:32:59.956Z,29.38
2022-12-16T01:35:52.607Z,27.45
2022-12-16T01:38:18.356Z,28.50
2022-12-16T01:40:46.145Z,27.92
2022-12-16T01:43:14.776Z,28.38
2022-12-16T01:45:43.713Z,29.48
2022-12-16T01:48:20.418Z,28.63
2022-12-16T01:50:49.792Z,28.98
2022-12-16T01:53:18.830Z,28.60
2022-12-16T01:55:50.133Z,27.77
2022-12-16T01:58:22.335Z,28.15
2022-12-16T02:00:50.257Z,27.77
2022-12-16T02:03:19.379Z,27.13
2022-12-16T02:05:47.706Z,28.33
2022-12-16T02:08:18.529Z,29.35
2022-12-16T02:11:01.688Z,27.83
2022-12-16T02:13:35.442Z,26.15
2022-12-16T02:16:11.679Z,27.73
2022-12-16T02:18:46.547Z,27.90
2022-12-16T02:21:39.928Z,27.27
2022-12-16T02:24:31.115Z,28.17
2022-12-16T02:27:28.160Z,28.67
2022-12-16T02:30:06.860Z,29.30
2022-12-16T02:32:48.824Z,28.65
2022-12-16T02:35:24.053Z,27.38
2022-12-16T02:37:58.039Z,28.45
2022-12-16T02:40:29.945Z,29.37
2022-12-16T02:43:01.919Z,27.73
2022-12-16T02:45:31.220Z,28.17
2022-12-16T02:48:00.112Z,27.45
2022-12-16T02:50:30.759Z,27.30
2022-12-16T02:53:00.678Z,26.67
2022-12-16T02:55:34.120Z,25.90
2022-12-16T02:58:12.446Z,26.75
2022-12-16T03:00:44.802Z,26.67
2022-12-16T03:03:23.316Z,28.70
2022-12-16T03:05:52.578Z,26.95
2022-12-16T03:08:23.405Z,26.25
2022-12-16T03:10:53.481Z,26.83
2022-12-16T03:13:24.064Z,25.38
2022-12-16T03:15:54.454Z,26.92
2022-12-16T03:18:26.101Z,27.20
2022-12-16T03:20:56.589Z,26.67
2022-12-16T03:23:27.901Z,26.23
2022-12-16T03:26:01.139Z,25.60
2022-12-16T03:28:41.521Z,25.80
2022-12-16T03:31:14.746Z,26.10
2022-12-16T03:33:49.327Z,27.90
2022-12-16T03:36:21.206Z,27.52
2022-12-16T03:38:49.193Z,25.40
2022-12-16T03:41:17.459Z,25.45
2022-12-16T03:43:45.064Z,26.08
2022-12-16T03:46:13.240Z,26.63
2022-12-16T03:48:48.421Z,26.70
2022-12-16T03:51:16.433Z,27.70
2022-12-16T03:53:44.337Z,27.92
2022-12-16T03:56:12.703Z,27.50
2022-12-16T03:58:41.078Z,26.20
2022-12-16T04:01:10.384Z,27.27
2022-12-16T04:03:38.687Z,25.73
2022-12-16T04:06:08.914Z,27.02
2022-12-16T04:08:36.418Z,27.80
2022-12-16T04:11:21.794Z,25.52
2022-12-16T04:14:07.308Z,27.60
2022-12-16T04:16:52.904Z,25.17
2022-12-16T04:19:42.086Z,25.73
2022-12-16T04:22:32.443Z,24.65
2022-12-16T04:25:03.009Z,26.40
2022-12-16T04:27:31.715Z,26.25
2022-12-16T04:30:16.990Z,26.25
2022-12-16T04:33:02.573Z,27.98
2022-12-16T04:35:47.534Z,26.83
2022-12-16T04:38:34.065Z,27.25
2022-12-16T04:41:19.044Z,26.90
2022-12-16T04:44:05.252Z,26.20
2022-12-16T04:46:50.990Z,26.90
2022-12-16T04:49:36.978Z,26.67
2022-12-16T04:52:22.772Z,28.02
2022-12-16T04:55:09.266Z,27.13
2022-12-16T04:57:54.594Z,26.92
2022-12-16T05:00:40.005Z,26.70
2022-12-16T05:03:26.340Z,25.92
2022-12-16T05:06:11.777Z,25.23
2022-12-16T05:09:00.169Z,27.10
2022-12-16T05:11:46.860Z,26.97
2022-12-16T05:14:32.581Z,25.45
2022-12-16T05:17:17.942Z,25.37
2022-12-16T05:20:03.175Z,26.48
2022-12-16T05:22:48.535Z,27.15
2022-12-16T05:25:33.827Z,26.98
2022-12-16T05:28:20.488Z,26.35
2022-12-16T05:31:05.476Z,25.20
2022-12-16T05:33:50.940Z,27.63
2022-12-16T05:36:36.075Z,26.38
2022-12-16T05:39:21.454Z,26.45
2022-12-16T05:42:06.540Z,27.05
2022-12-16T05:44:52.927Z,27.05
2022-12-16T05:47:38.092Z,27.45
2022-12-16T05:50:24.543Z,28.25
2022-12-16T05:53:24.814Z,26.83
2022-12-16T05:56:15.716Z,27.00
2022-12-16T05:59:01.112Z,27.55
2022-12-16T06:01:48.134Z,27.00
2022-12-16T06:04:35.705Z,28.42
2022-12-16T06:07:21.635Z,29.10
2022-12-16T06:10:06.815Z,28.33
2022-12-16T06:12:52.383Z,29.17
2022-12-16T06:15:37.439Z,29.02
2022-12-16T06:18:25.276Z,28.38
2022-12-16T06:21:10.908Z,26.70
2022-12-16T06:23:55.862Z,28.63
2022-12-16T06:26:41.361Z,28.02
2022-12-16T06:29:27.718Z,27.43
2022-12-16T06:32:13.571Z,27.10
2022-12-16T06:35:00.154Z,27.17
2022-12-16T06:37:45.453Z,28.23
2022-12-16T06:40:30.746Z,26.73
2022-12-16T06:43:16.516Z,28.40
2022-12-16T06:46:01.511Z,29.42
2022-12-16T06:48:52.352Z,28.92
2022-12-16T06:51:39.030Z,28.33
2022-12-16T06:54:24.152Z,26.70
2022-12-16T06:57:09.314Z,28.70
2022-12-16T06:59:55.686Z,27.80
2022-12-16T07:02:41.360Z,27.23
2022-12-16T07:05:28.393Z,27.88
2022-12-16T07:08:18.412Z,27.15
2022-12-16T07:11:16.117Z,28.17
2022-12-16T07:14:02.472Z,31.38
2022-12-16T07:16:47.962Z,31.37
2022-12-16T07:19:33.339Z,34.40
2022-12-16T07:22:20.062Z,30.55
2022-12-16T07:25:06.080Z,32.97
2022-12-16T07:27:51.666Z,34.67
2022-12-16T07:30:37.452Z,32.80
2022-12-16T07:33:22.842Z,31.13
2022-12-16T07:36:09.042Z,29.77
2022-12-16T07:38:54.754Z,31.27
2022-12-16T07:41:41.481Z,30.02
2022-12-16T07:44:26.950Z,30.27
2022-12-16T07:47:12.138Z,28.92
2022-12-16T07:49:57.534Z,26.90
2022-12-16T07:52:43.248Z,25.02
2022-12-16T07:55:29.795Z,25.90
2022-12-16T07:58:16.811Z,28.87
2022-12-16T08:01:07.669Z,26.35
2022-12-16T08:03:54.224Z,24.45
2022-12-16T08:06:40.549Z,26.20
2022-12-16T08:09:25.685Z,23.73
2022-12-16T08:12:11.635Z,25.00
2022-12-16T08:14:58.665Z,24.63
2022-12-16T08:17:43.799Z,23.33
2022-12-16T08:20:29.484Z,23.42
2022-12-16T08:23:14.621Z,23.00
2022-12-16T08:26:00.390Z,22.77
2022-12-16T08:28:45.803Z,22.38
2022-12-16T08:31:33.289Z,25.13
2022-12-16T08:34:27.333Z,24.25
2022-12-16T08:37:12.866Z,22.90
2022-12-16T08:40:25.750Z,24.15
2022-12-16T08:43:07.857Z,23.48
2022-12-16T08:45:57.053Z,25.98
2022-12-16T08:48:43.650Z,23.83
2022-12-16T08:51:29.479Z,25.10
2022-12-16T08:54:15.582Z,26.35
2022-12-16T08:57:01.268Z,26.15
2022-12-16T08:59:47.446Z,27.77
2022-12-16T09:02:33.142Z,27.17
2022-12-16T09:05:19.891Z,28.35
2022-12-16T09:08:05.783Z,28.85
2022-12-16T09:10:50.926Z,29.70
2022-12-16T09:13:36.720Z,28.98
2022-12-16T09:16:22.177Z,31.25
2022-12-16T09:19:07.694Z,30.52
2022-12-16T09:21:59.290Z,32.00
2022-12-16T09:24:44.700Z,31.67
2022-12-16T09:27:30.387Z,30.75
2022-12-16T09:30:15.886Z,28.85
2022-12-16T09:33:02.267Z,30.30
2022-12-16T09:35:49.115Z,29.02
2022-12-16T09:38:35.633Z,27.42
2022-12-16T09:41:43.014Z,28.15
2022-12-16T09:44:47.275Z,31.50
2022-12-16T09:47:38.839Z,32.70
2022-12-16T09:50:24.767Z,30.48
2022-12-16T09:53:26.266Z,30.08
2022-12-16T09:56:12.994Z,29.35
2022-12-16T09:59:02.323Z,29.67
2022-12-16T10:01:49.265Z,29.88
2022-12-16T10:04:35.817Z,29.58
2022-12-16T10:07:21.490Z,30.10
2022-12-16T10:10:16.596Z,30.40
2022-12-16T10:13:08.432Z,29.45
2022-12-16T10:16:00.050Z,30.52
2022-12-16T10:18:57.933Z,30.15
2022-12-16T10:21:46.950Z,30.83
2022-12-16T10:24:39.513Z,31.38
2022-12-16T10:27:30.273Z,30.13
2022-12-16T10:30:17.170Z,31.70
2022-12-16T10:33:05.363Z,32.45
2022-12-16T10:35:55.649Z,30.20
2022-12-16T10:38:44.072Z,31.92
2022-12-16T10:41:30.677Z,32.30
2022-12-16T10:44:16.169Z,30.58
2022-12-16T10:47:02.732Z,31.45
2022-12-16T10:49:53.650Z,32.00
2022-12-16T10:52:41.621Z,33.55
2022-12-16T10:55:38.683Z,31.75
2022-12-16T10:58:35.863Z,33.10
2022-12-16T11:01:40.086Z,32.75
2022-12-16T11:04:47.785Z,32.35
2022-12-16T11:07:45.459Z,31.55
2022-12-16T11:10:52.047Z,30.70
2022-12-16T11:13:41.842Z,30.90
2022-12-16T11:16:33.447Z,31.25
2022-12-16T11:19:19.259Z,32.05
2022-12-16T11:22:05.953Z,31.48
2022-12-16T11:24:51.311Z,30.65
2022-12-16T11:27:42.156Z,31.08
2022-12-16T11:30:39.252Z,31.50
2022-12-16T11:33:31.213Z,30.90
2022-12-16T11:36:24.693Z,31.85
2022-12-16T11:39:11.875Z,30.60
2022-12-16T11:42:13.270Z,31.58
2022-12-16T11:45:01.800Z,31.23
2022-12-16T11:47:54.218Z,30.50
2022-12-16T11:50:41.976Z,30.10
2022-12-16T11:53:41.197Z,31.30
2022-12-16T11:56:31.393Z,29.30
2022-12-16T11:59:20.619Z,30.05
2022-12-16T12:02:10.459Z,30.35
2022-12-16T12:04:55.779Z,30.15
2022-12-16T12:07:48.924Z,28.08
2022-12-16T12:10:47.421Z,28.20
2022-12-16T12:13:46.907Z,28.80
2022-12-16T12:16:47.759Z,28.07
2022-12-16T12:19:42.219Z,28.33
2022-12-16T12:22:31.679Z,28.30
2022-12-16T12:25:21.101Z,27.77
2022-12-16T12:28:15.013Z,28.10
2022-12-16T12:31:05.951Z,28.33
2022-12-16T12:34:10.058Z,28.70
2022-12-16T12:36:57.698Z,28.27
2022-12-16T12:39:48.107Z,26.77
2022-12-16T12:42:48.760Z,28.98
2022-12-16T12:45:46.833Z,27.33
2022-12-16T12:48:37.705Z,27.35
2022-12-16T12:51:27.206Z,26.40
2022-12-16T12:54:17.427Z,24.80
2022-12-16T12:57:06.575Z,25.00
2022-12-16T13:00:02.848Z,25.07
2022-12-16T13:02:58.125Z,24.35
2022-12-16T13:05:47.571Z,23.08
2022-12-16T13:08:57.101Z,23.95
2022-12-16T13:11:42.812Z,22.27
2022-12-16T13:15:03.126Z,22.23
2022-12-16T13:17:48.451Z,19.73
2022-12-16T13:20:55.508Z,20.52
2022-12-16T13:23:47.906Z,21.20
2022-12-16T13:26:34.927Z,21.90
2022-12-16T13:29:26.830Z,20.67
2022-12-16T13:32:19.072Z,20.33
2022-12-16T13:35:04.196Z,19.70
2022-12-16T13:37:51.300Z,20.38
2022-12-16T13:40:39.211Z,18.65
2022-12-16T13:43:24.716Z,18.07
2022-12-16T13:46:47.416Z,17.35
2022-12-16T13:49:59.801Z,13.52
2022-12-16T13:52:56.434Z,16.33
2022-12-16T13:55:46.897Z,16.67
2022-12-16T13:58:39.293Z,15.82
2022-12-16T14:01:29.389Z,15.63
2022-12-16T14:04:23.484Z,13.47
2022-12-16T14:07:12.264Z,14.20
2022-12-16T14:10:06.006Z,13.52
2022-12-16T14:13:07.782Z,12.83
2022-12-16T14:16:06.021Z,15.90
2022-12-16T14:19:03.142Z,15.35
2022-12-16T14:21:56.324Z,16.42
2022-12-16T14:24:47.723Z,17.38
2022-12-16T14:27:41.332Z,17.98
2022-12-16T14:30:35.869Z,19.58
2022-12-16T14:33:41.127Z,20.75
2022-12-16T14:36:41.034Z,22.00
2022-12-16T14:39:31.425Z,20.83
2022-12-16T14:42:16.935Z,21.13
2022-12-16T14:45:06.141Z,19.97
2022-12-16T14:47:51.708Z,19.20
2022-12-16T14:50:40.177Z,18.92
2022-12-16T14:53:32.587Z,19.98
2022-12-16T14:56:35.466Z,19.70
2022-12-16T14:59:36.099Z,20.90
2022-12-16T15:02:32.923Z,20.73
2022-12-16T15:05:19.017Z,21.17
2022-12-16T15:08:04.447Z,18.77
2022-12-16T15:10:50.237Z,18.33
2022-12-16T15:14:19.399Z,18.15
2022-12-16T15:17:06.544Z,18.67
2022-12-16T15:20:03.157Z,18.13
2022-12-16T15:22:48.565Z,18.85
2022-12-16T15:25:41.043Z,20.17
2022-12-16T15:28:53.415Z,18.50
2022-12-16T15:31:42.734Z,20.43
2022-12-16T15:34:55.956Z,21.35
2022-12-16T15:37:44.143Z,23.65
2022-12-16T15:40:44.502Z,23.38
2022-12-16T15:43:40.903Z,24.50
2022-12-16T15:46:35.150Z,25.35
2022-12-16T15:49:20.514Z,26.07
2022-12-16T15:52:08.720Z,25.42
2022-12-16T15:55:05.299Z,25.92
2022-12-16T15:57:52.194Z,25.65
2022-12-16T16:00:41.276Z,26.63
2022-12-16T16:03:37.247Z,24.27
2022-12-16T16:06:23.293Z,25.97
2022-12-16T16:09:13.076Z,26.20
2022-12-16T16:11:54.589Z,25.17
2022-12-16T16:14:40.485Z,27.15
2022-12-16T16:17:34.899Z,26.45
2022-12-16T16:20:20.659Z,26.38
2022-12-16T16:23:05.845Z,26.80
2022-12-16T16:25:57.996Z,27.48
2022-12-16T16:28:45.967Z,27.70
2022-12-16T16:31:31.575Z,28.02
2022-12-16T16:34:16.493Z,26.73
2022-12-16T16:37:01.802Z,28.17
2022-12-16T16:39:58.404Z,27.83
2022-12-16T16:42:45.292Z,29.40
2022-12-16T16:45:30.485Z,29.43
2022-12-16T16:48:23.271Z,29.87
2022-12-16T16:51:08.708Z,31.23
2022-12-16T16:53:54.350Z,31.87
2022-12-16T16:56:40.483Z,30.80
2022-12-16T16:59:28.114Z,31.10
2022-12-16T17:02:13.489Z,30.83
2022-12-16T17:04:58.477Z,30.75
2022-12-16T17:07:43.963Z,32.85
2022-12-16T17:10:29.974Z,33.55
2022-12-16T17:13:15.024Z,32.90
2022-12-16T17:16:03.564Z,31.50
2022-12-16T17:18:52.338Z,32.27
2022-12-16T17:21:38.083Z,32.77
2022-12-16T17:24:23.752Z,33.88
2022-12-16T17:27:09.604Z,34.13
2022-12-16T17:29:54.577Z,34.50
2022-12-16T17:32:41.201Z,36.80
2022-12-16T17:35:29.245Z,35.63
2022-12-16T17:38:14.301Z,36.47
2022-12-16T17:41:01.858Z,34.65
2022-12-16T17:43:47.005Z,31.90
2022-12-16T17:46:32.399Z,33.10
2022-12-16T17:49:18.622Z,31.45
2022-12-16T17:52:03.968Z,31.02
2022-12-16T17:54:49.428Z,31.00
2022-12-16T17:57:34.698Z,31.30
2022-12-16T18:00:21.116Z,30.58
2022-12-16T18:03:06.287Z,31.25
2022-12-16T18:05:53.047Z,30.63
2022-12-16T18:08:38.379Z,31.98
2022-12-16T18:11:23.838Z,31.67
2022-12-16T18:14:08.943Z,31.27
2022-12-16T18:16:54.192Z,33.33
2022-12-16T18:19:39.589Z,32.63
2022-12-16T18:22:27.229Z,31.27
2022-12-16T18:25:12.144Z,30.60
2022-12-16T18:27:58.052Z,28.70
2022-12-16T18:30:43.370Z,29.73
2022-12-16T18:33:37.397Z,29.90
2022-12-16T18:36:23.328Z,28.20
2022-12-16T18:39:09.704Z,26.87
2022-12-16T18:42:00.389Z,26.60
2022-12-16T18:44:45.625Z,29.27
2022-12-16T18:47:30.034Z,29.30
2022-12-16T18:50:15.314Z,27.85
2022-12-16T18:53:01.130Z,29.33
2022-12-16T18:55:47.951Z,30.23
2022-12-16T18:58:50.675Z,29.10
2022-12-16T19:01:36.345Z,30.67
2022-12-16T19:04:21.658Z,30.40
2022-12-16T19:07:06.888Z,30.13
2022-12-16T19:09:52.870Z,30.83
2022-12-16T19:12:39.644Z,30.08
2022-12-16T19:15:25.234Z,29.77
2022-12-16T19:18:11.316Z,30.73
2022-12-16T19:21:08.378Z,32.70
2022-12-16T19:23:54.944Z,32.47
2022-12-16T19:26:40.492Z,34.15
2022-12-16T19:29:27.189Z,34.53
2022-12-16T19:32:12.869Z,36.58
2022-12-16T19:34:57.922Z,35.67
2022-12-16T19:37:43.351Z,38.83
2022-12-16T19:40:29.108Z,35.33
2022-12-16T19:43:14.582Z,35.80
2022-12-16T19:46:01.756Z,36.33
2022-12-16T19:48:47.068Z,37.60
2022-12-16T19:51:32.422Z,39.65
2022-12-16T19:54:17.935Z,38.47
2022-12-16T19:57:02.930Z,36.83
2022-12-16T19:59:49.051Z,36.42
2022-12-16T20:02:47.093Z,38.45
2022-12-16T20:05:32.546Z,42.65
2022-12-16T20:08:26.193Z,43.65
2022-12-16T20:11:11.598Z,44.13
2022-12-16T20:13:56.788Z,44.10
2022-12-16T20:16:42.029Z,42.83
2022-12-16T20:19:28.597Z,49.92
2022-12-16T20:22:16.424Z,54.58
2022-12-16T20:25:13.395Z,49.45
2022-12-16T20:27:58.697Z,51.63
2022-12-16T20:30:43.993Z,55.07
2022-12-16T20:33:31.312Z,53.80
2022-12-16T20:36:18.744Z,52.72
2022-12-16T20:39:05.130Z,52.60
2022-12-16T20:41:51.810Z,50.80
2022-12-16T20:44:37.242Z,43.58
2022-12-16T20:47:22.817Z,44.73
2022-12-16T20:50:08.083Z,43.70
2022-12-16T20:52:56.044Z,41.55
2022-12-16T20:55:42.586Z,39.40
2022-12-16T20:58:27.713Z,40.80
2022-12-16T21:01:14.176Z,38.70
2022-12-16T21:03:59.172Z,38.50
2022-12-16T21:06:44.485Z,38.42
2022-12-16T21:09:31.161Z,37.75
2022-12-16T21:12:16.467Z,36.75
2022-12-16T21:15:01.678Z,35.65
2022-12-16T21:17:46.930Z,35.70
2022-12-16T21:20:43.676Z,34.80
2022-12-16T21:23:28.840Z,36.40
2022-12-16T21:26:17.533Z,34.15
2022-12-16T21:29:02.771Z,34.17
2022-12-16T21:31:56.469Z,33.80
2022-12-16T21:34:42.129Z,32.00
2022-12-16T21:37:27.472Z,32.08
2022-12-16T21:40:24.223Z,32.35
2022-12-16T21:43:11.232Z,33.88
2022-12-16T21:45:56.487Z,34.58
2022-12-16T21:48:42.021Z,32.65
2022-12-16T21:51:27.179Z,34.63
2022-12-16T21:54:12.505Z,32.28
2022-12-16T21:56:57.826Z,33.63
2022-12-16T21:59:44.684Z,32.95
2022-12-16T22:02:30.781Z,34.28
2022-12-16T22:05:16.140Z,32.38
2022-12-16T22:08:01.754Z,30.60
2022-12-16T22:10:47.035Z,26.48
2022-12-16T22:13:32.233Z,31.00
2022-12-16T22:16:18.927Z,29.50
2022-12-16T22:19:03.913Z,28.17
2022-12-16T22:21:49.338Z,28.55
2022-12-16T22:24:49.007Z,27.70
2022-12-16T22:27:34.496Z,27.23
2022-12-16T22:30:19.796Z,24.67
2022-12-16T22:33:06.586Z,25.67
2022-12-16T22:35:52.407Z,24.58
2022-12-16T22:38:37.733Z,25.63
2022-12-16T22:41:25.282Z,25.67
2022-12-16T22:44:19.089Z,25.40
2022-12-16T22:47:04.365Z,21.87
2022-12-16T22:49:51.754Z,23.52
2022-12-16T22:52:37.094Z,21.98
2022-12-16T22:55:22.649Z,24.15
2022-12-16T22:58:07.893Z,22.17
2022-12-16T23:00:53.284Z,22.95
2022-12-16T23:03:41.942Z,24.90
2022-12-16T23:06:30.669Z,22.60
2022-12-16T23:09:18.174Z,22.33
2022-12-16T23:12:03.658Z,21.98
2022-12-16T23:14:49.093Z,21.80
2022-12-16T23:17:35.168Z,23.10
2022-12-16T23:20:20.385Z,22.60
2022-12-16T23:23:06.792Z,22.25
2022-12-16T23:25:52.316Z,21.60
2022-12-16T23:28:38.599Z,19.50
2022-12-16T23:31:23.824Z,21.25
2022-12-16T23:34:09.268Z,19.95
2022-12-16T23:36:55.657Z,19.17
2022-12-16T23:39:51.095Z,19.13
2022-12-16T23:42:48.487Z,17.23
2022-12-16T23:45:33.664Z,17.52
2022-12-16T23:48:19.898Z,16.65
2022-12-16T23:51:05.474Z,14.18
2022-12-16T23:53:50.642Z,16.77
2022-12-16T23:56:37.024Z,15.55
2022-12-16T23:59:23.080Z,14.25
